FZAA

Ndjili International Airport

Kinshasa, Congo, Democratic Republic of
METAR FZAA 180100Z 00000KT 2000 BR BKN016 21/21 Q1012 BECMG 4000
Observed Flight Rules
Oct-18 @ 01:00 UTC (25 minutes ago) Instrument Flight Rules
Visibility Clouds Conditions
1,996 meters
  • Broken at 1,600' AGL
  • Mist
Temperatures Readings
Current 21°C / 70°F
Dewpoint 21°C / 70°F
Humidity 100%
Altimeter 29.88" Hg
Pressure 1012 hPa
Elevation 312
METAR FZAA 180100Z 00000KT 2000 BR BKN016 21/21 Q1012 BECMG 4000
Observed Flight Rules
Oct-18 @ 01:00 UTC
(25 minutes ago)
IFR
Clouds
  • Broken at 1,600' AGL
Conditions
  • Mist
Temperature Dewpoint
21°C / 70°F 21°C / 70°F
Humidity Altimeter Pressure
100% 29.88" Hg 1012 hPa